createdAt,value
2022-11-07T00:00:42.940Z,23.10
2022-11-07T00:03:17.455Z,23.30
2022-11-07T00:05:47.860Z,23.30
2022-11-07T00:08:18.216Z,23.30
2022-11-07T00:10:48.388Z,23.40
2022-11-07T00:13:19.911Z,23.20
2022-11-07T00:15:50.565Z,23.10
2022-11-07T00:18:22.785Z,23.00
2022-11-07T00:20:53.446Z,23.10
2022-11-07T00:23:24.291Z,23.10
2022-11-07T00:25:54.639Z,23.10
2022-11-07T00:28:25.302Z,23.30
2022-11-07T00:30:55.611Z,23.40
2022-11-07T00:33:26.238Z,23.70
2022-11-07T00:35:56.668Z,23.90
2022-11-07T00:38:27.452Z,24.10
2022-11-07T00:41:02.870Z,24.30
2022-11-07T00:43:34.241Z,24.50
2022-11-07T00:46:07.183Z,24.80
2022-11-07T00:48:39.038Z,25.00
2022-11-07T00:51:15.206Z,25.20
2022-11-07T00:53:46.359Z,25.20
2022-11-07T00:56:20.510Z,25.10
2022-11-07T00:58:50.891Z,25.00
2022-11-07T01:01:24.004Z,25.00
2022-11-07T01:04:13.543Z,25.10
2022-11-07T01:06:46.744Z,25.20
2022-11-07T01:09:22.887Z,25.30
2022-11-07T01:11:53.661Z,25.30
2022-11-07T01:14:26.271Z,25.20
2022-11-07T01:16:56.982Z,25.00
2022-11-07T01:19:27.653Z,25.20
2022-11-07T01:21:59.719Z,25.30
2022-11-07T01:24:30.438Z,25.50
2022-11-07T01:27:02.536Z,25.70
2022-11-07T01:29:33.570Z,25.90
2022-11-07T01:32:04.529Z,25.90
2022-11-07T01:34:35.555Z,26.00
2022-11-07T01:37:06.624Z,26.00
2022-11-07T01:39:38.128Z,25.80
2022-11-07T01:42:08.950Z,25.50
2022-11-07T01:44:45.375Z,25.10
2022-11-07T01:47:16.077Z,25.00
2022-11-07T01:49:48.498Z,24.80
2022-11-07T01:52:23.565Z,24.60
2022-11-07T01:55:19.566Z,24.30
2022-11-07T01:57:59.044Z,23.80
2022-11-07T02:00:30.840Z,23.40
2022-11-07T02:03:06.146Z,23.10
2022-11-07T02:05:45.443Z,22.90
2022-11-07T02:08:16.492Z,22.70
2022-11-07T02:10:47.833Z,22.40
2022-11-07T02:13:29.136Z,22.30
2022-11-07T02:16:04.045Z,22.20
2022-11-07T02:18:38.026Z,22.20
2022-11-07T02:21:33.814Z,22.20
2022-11-07T02:24:12.628Z,22.20
2022-11-07T02:26:44.449Z,22.10
2022-11-07T02:29:15.197Z,22.10
2022-11-07T02:31:45.410Z,22.20
2022-11-07T02:34:15.635Z,22.10
2022-11-07T02:36:46.470Z,22.10
2022-11-07T02:39:17.178Z,22.10
2022-11-07T02:41:48.893Z,22.10
2022-11-07T02:44:21.179Z,22.10
2022-11-07T02:46:53.320Z,22.10
2022-11-07T02:49:24.279Z,22.20
2022-11-07T02:51:55.436Z,22.20
2022-11-07T02:54:28.097Z,22.30
2022-11-07T02:56:58.729Z,22.30
2022-11-07T02:59:28.984Z,22.40
2022-11-07T03:01:59.425Z,22.40
2022-11-07T03:04:29.718Z,22.40
2022-11-07T03:07:01.615Z,22.40
2022-11-07T03:09:31.794Z,22.30
2022-11-07T03:12:04.386Z,22.20
2022-11-07T03:14:35.182Z,22.10
2022-11-07T03:17:07.216Z,22.10
2022-11-07T03:19:38.176Z,22.00
2022-11-07T03:22:08.687Z,22.00
2022-11-07T03:24:39.007Z,22.00
2022-11-07T03:27:09.270Z,22.00
2022-11-07T03:29:40.346Z,22.00
2022-11-07T03:32:13.888Z,21.90
2022-11-07T03:34:45.788Z,21.90
2022-11-07T03:37:16.181Z,21.90
2022-11-07T03:39:46.478Z,21.90
2022-11-07T03:42:16.811Z,21.80
2022-11-07T03:44:47.038Z,21.60
2022-11-07T03:47:17.746Z,21.40
2022-11-07T03:49:48.421Z,21.00
2022-11-07T03:52:19.125Z,20.50
2022-11-07T03:54:49.405Z,20.20
2022-11-07T03:57:20.159Z,19.80
2022-11-07T03:59:50.443Z,19.40
2022-11-07T04:02:21.670Z,19.10
2022-11-07T04:04:52.841Z,18.90
2022-11-07T04:07:23.685Z,18.80
2022-11-07T04:09:54.311Z,18.60
2022-11-07T04:12:43.007Z,18.60
2022-11-07T04:15:33.961Z,18.50
2022-11-07T04:18:04.480Z,18.40
2022-11-07T04:20:34.758Z,18.40
2022-11-07T04:23:05.142Z,18.30
2022-11-07T04:26:10.515Z,18.30
2022-11-07T04:28:41.398Z,18.20
2022-11-07T04:31:11.734Z,18.10
2022-11-07T04:33:42.591Z,18.10
2022-11-07T04:36:13.304Z,18.00
2022-11-07T04:38:46.679Z,18.00
2022-11-07T04:41:26.542Z,17.90
2022-11-07T04:43:57.118Z,17.80
2022-11-07T04:46:27.742Z,17.80
2022-11-07T04:48:59.338Z,17.70
2022-11-07T04:51:29.698Z,17.60
2022-11-07T04:53:59.999Z,17.50
2022-11-07T04:56:34.293Z,17.30
2022-11-07T04:59:05.440Z,17.20
2022-11-07T05:01:36.345Z,17.00
2022-11-07T05:04:06.847Z,16.90
2022-11-07T05:06:41.341Z,16.80
2022-11-07T05:09:18.880Z,16.80
2022-11-07T05:11:52.666Z,16.70
2022-11-07T05:14:24.350Z,16.70
2022-11-07T05:16:56.828Z,16.60
2022-11-07T05:19:28.179Z,16.50
2022-11-07T05:22:17.273Z,16.50
2022-11-07T05:24:47.551Z,16.50
2022-11-07T05:27:23.037Z,16.50
2022-11-07T05:29:54.008Z,16.50
2022-11-07T05:32:24.269Z,16.60
2022-11-07T05:34:55.049Z,16.60
2022-11-07T05:37:25.410Z,16.60
2022-11-07T05:39:55.784Z,16.70
2022-11-07T05:42:26.077Z,16.70
2022-11-07T05:44:56.536Z,16.80
2022-11-07T05:47:27.221Z,16.80
2022-11-07T05:49:57.400Z,16.80
2022-11-07T05:52:28.076Z,16.80
2022-11-07T05:54:58.297Z,16.90
2022-11-07T05:57:28.944Z,16.90
2022-11-07T05:59:59.608Z,16.90
2022-11-07T06:02:30.443Z,16.90
2022-11-07T06:05:00.705Z,17.00
2022-11-07T06:07:31.439Z,17.00
2022-11-07T06:10:02.088Z,17.10
2022-11-07T06:12:32.810Z,17.10
2022-11-07T06:15:03.564Z,17.20
2022-11-07T06:17:34.693Z,17.20
2022-11-07T06:20:05.665Z,17.20
2022-11-07T06:22:35.882Z,17.30
2022-11-07T06:25:07.076Z,17.30
2022-11-07T06:27:37.583Z,17.30
2022-11-07T06:30:09.305Z,17.40
2022-11-07T06:32:42.438Z,17.40
2022-11-07T06:35:13.731Z,17.40
2022-11-07T06:37:43.963Z,17.50
2022-11-07T06:40:16.321Z,17.40
2022-11-07T06:42:47.013Z,17.40
2022-11-07T06:45:17.252Z,17.40
2022-11-07T06:47:47.505Z,17.40
2022-11-07T06:50:17.807Z,17.50
2022-11-07T06:52:48.091Z,17.50
2022-11-07T06:55:18.417Z,17.50
2022-11-07T06:57:48.640Z,17.50
2022-11-07T07:00:19.635Z,17.50
2022-11-07T07:02:58.426Z,17.50
2022-11-07T07:05:29.606Z,17.50
2022-11-07T07:08:02.273Z,17.40
2022-11-07T07:10:33.801Z,17.40
2022-11-07T07:13:04.468Z,17.40
2022-11-07T07:15:49.400Z,17.40
2022-11-07T07:18:21.201Z,17.30
2022-11-07T07:20:56.512Z,17.30
2022-11-07T07:23:26.684Z,17.30
2022-11-07T07:25:57.166Z,17.40
2022-11-07T07:28:27.483Z,17.30
2022-11-07T07:31:09.861Z,17.40
2022-11-07T07:33:40.276Z,17.40
2022-11-07T07:36:14.210Z,17.50
2022-11-07T07:38:48.089Z,17.50
2022-11-07T07:41:18.772Z,17.60
2022-11-07T07:43:49.399Z,17.50
2022-11-07T07:46:25.199Z,17.50
2022-11-07T07:48:55.905Z,17.50
2022-11-07T07:51:26.596Z,17.60
2022-11-07T07:53:56.962Z,17.50
2022-11-07T07:56:27.193Z,17.50
2022-11-07T07:58:57.407Z,17.50
2022-11-07T08:01:27.813Z,17.50
2022-11-07T08:04:01.960Z,17.50
2022-11-07T08:06:34.620Z,17.50
2022-11-07T08:09:05.432Z,17.50
2022-11-07T08:11:37.486Z,17.40
2022-11-07T08:14:08.182Z,17.40
2022-11-07T08:16:45.165Z,17.50
2022-11-07T08:19:17.023Z,17.50
2022-11-07T08:21:48.014Z,17.40
2022-11-07T08:24:18.514Z,17.40
2022-11-07T08:26:49.126Z,17.30
2022-11-07T08:29:20.181Z,17.30
2022-11-07T08:31:52.801Z,17.20
2022-11-07T08:34:24.169Z,17.20
2022-11-07T08:36:54.517Z,17.20
2022-11-07T08:39:24.756Z,17.20
2022-11-07T08:41:55.215Z,17.20
2022-11-07T08:44:27.260Z,17.10
2022-11-07T08:46:57.945Z,17.10
2022-11-07T08:49:28.394Z,17.00
2022-11-07T08:51:59.638Z,16.90
2022-11-07T08:54:32.750Z,16.90
2022-11-07T08:57:03.418Z,16.90
2022-11-07T08:59:33.702Z,16.90
2022-11-07T09:02:47.542Z,16.90
2022-11-07T09:04:54.514Z,16.90
2022-11-07T09:07:25.744Z,16.80
2022-11-07T09:09:56.658Z,16.80
2022-11-07T09:12:27.831Z,16.80
2022-11-07T09:14:58.360Z,16.70
2022-11-07T09:17:29.054Z,16.70
2022-11-07T09:19:59.877Z,16.70
2022-11-07T09:22:30.558Z,16.70
2022-11-07T09:25:00.867Z,16.70
2022-11-07T09:27:31.154Z,16.70
2022-11-07T09:30:02.173Z,16.70
2022-11-07T09:32:44.999Z,16.70
2022-11-07T09:35:17.014Z,16.60
2022-11-07T09:37:47.336Z,16.60
2022-11-07T09:40:26.275Z,16.60
2022-11-07T09:43:15.025Z,16.50
2022-11-07T09:46:05.940Z,16.50
2022-11-07T09:48:47.173Z,16.40
2022-11-07T09:51:30.367Z,16.40
2022-11-07T09:54:05.884Z,16.40
2022-11-07T09:56:37.460Z,16.30
2022-11-07T09:59:32.507Z,16.20
2022-11-07T10:02:04.310Z,16.10
2022-11-07T10:04:35.168Z,16.10
2022-11-07T10:07:27.018Z,16.10
2022-11-07T10:10:43.938Z,16.00
2022-11-07T10:13:18.106Z,15.90
2022-11-07T10:16:07.007Z,15.90
2022-11-07T10:18:48.288Z,15.90
2022-11-07T10:21:41.781Z,15.80
2022-11-07T10:24:36.517Z,15.80
2022-11-07T10:27:13.856Z,15.80
2022-11-07T10:29:54.631Z,15.80
2022-11-07T10:32:32.530Z,15.80
2022-11-07T10:35:08.288Z,15.80
2022-11-07T10:37:38.924Z,15.80
2022-11-07T10:40:19.436Z,15.70
2022-11-07T10:42:50.913Z,15.70
2022-11-07T10:45:21.817Z,15.70
2022-11-07T10:48:04.948Z,15.70
2022-11-07T10:50:36.043Z,15.70
2022-11-07T10:53:12.848Z,15.70
2022-11-07T10:55:46.902Z,15.70
2022-11-07T10:58:45.837Z,15.70
2022-11-07T11:01:16.228Z,15.70
2022-11-07T11:03:51.748Z,15.70
2022-11-07T11:06:24.243Z,15.70
2022-11-07T11:08:55.663Z,15.70
2022-11-07T11:11:37.808Z,15.70
2022-11-07T11:14:23.502Z,15.70
2022-11-07T11:16:58.610Z,15.70
2022-11-07T11:19:50.747Z,15.80
2022-11-07T11:22:24.005Z,15.70
2022-11-07T11:25:15.848Z,15.70
2022-11-07T11:27:50.824Z,15.70
2022-11-07T11:30:25.520Z,15.80
2022-11-07T11:33:11.318Z,15.80
2022-11-07T11:36:01.102Z,15.70
2022-11-07T11:38:42.143Z,15.70
2022-11-07T11:41:31.602Z,15.70
2022-11-07T11:44:40.398Z,15.80
2022-11-07T11:47:36.240Z,15.80
2022-11-07T11:50:08.711Z,15.80
2022-11-07T11:52:39.361Z,15.80
2022-11-07T11:55:17.306Z,15.70
2022-11-07T11:58:01.653Z,15.70
2022-11-07T12:00:39.328Z,15.70
2022-11-07T12:03:18.629Z,15.70
2022-11-07T12:06:06.721Z,15.70
2022-11-07T12:08:55.108Z,15.70
2022-11-07T12:11:44.255Z,15.60
2022-11-07T12:14:46.681Z,15.60
2022-11-07T12:17:20.353Z,15.60
2022-11-07T12:20:23.648Z,15.60
2022-11-07T12:23:48.976Z,15.60
2022-11-07T12:26:46.166Z,15.60
2022-11-07T12:29:37.375Z,15.60
2022-11-07T12:32:28.956Z,15.60
2022-11-07T12:35:24.278Z,15.60
2022-11-07T12:38:29.997Z,15.50
2022-11-07T12:41:06.981Z,15.50
2022-11-07T12:43:49.673Z,15.60
2022-11-07T12:46:40.163Z,15.60
2022-11-07T12:49:39.809Z,15.50
2022-11-07T12:52:28.776Z,15.50
2022-11-07T12:55:13.643Z,15.50
2022-11-07T12:57:45.248Z,15.50
2022-11-07T13:00:29.251Z,15.40
2022-11-07T13:03:31.294Z,15.40
2022-11-07T13:06:32.608Z,15.50
2022-11-07T13:09:28.359Z,15.50
2022-11-07T13:12:19.167Z,15.40
2022-11-07T13:14:50.060Z,15.40
2022-11-07T13:17:33.786Z,15.50
2022-11-07T13:20:09.217Z,15.40
2022-11-07T13:22:43.847Z,15.40
2022-11-07T13:25:17.527Z,15.40
2022-11-07T13:28:01.957Z,15.40
2022-11-07T13:30:43.036Z,15.40
2022-11-07T13:33:35.466Z,15.40
2022-11-07T13:36:28.669Z,15.40
2022-11-07T13:39:02.136Z,15.40
2022-11-07T13:41:34.243Z,15.40
2022-11-07T13:44:27.162Z,15.40
2022-11-07T13:47:03.473Z,15.40
2022-11-07T13:49:47.934Z,15.30
2022-11-07T13:52:30.888Z,15.20
2022-11-07T13:55:22.603Z,15.20
2022-11-07T13:58:06.719Z,15.10
2022-11-07T14:00:37.209Z,15.00
2022-11-07T14:03:08.329Z,14.90
2022-11-07T14:05:40.491Z,14.90
2022-11-07T14:08:37.747Z,14.80
2022-11-07T14:11:21.041Z,14.80
2022-11-07T14:13:55.807Z,14.70
2022-11-07T14:16:33.726Z,14.70
2022-11-07T14:19:08.264Z,14.60
2022-11-07T14:21:40.027Z,14.60
2022-11-07T14:24:39.422Z,14.60
2022-11-07T14:27:16.936Z,14.60
2022-11-07T14:30:05.557Z,14.50
2022-11-07T14:32:37.832Z,14.50
2022-11-07T14:35:11.965Z,14.40
2022-11-07T14:37:42.941Z,14.30
2022-11-07T14:40:13.943Z,14.30
2022-11-07T14:42:46.734Z,14.30
2022-11-07T14:45:33.325Z,14.20
2022-11-07T14:48:17.029Z,14.20
2022-11-07T14:50:50.943Z,14.20
2022-11-07T14:53:33.298Z,14.20
2022-11-07T14:56:11.582Z,14.20
2022-11-07T14:58:43.009Z,14.20
2022-11-07T15:01:18.054Z,14.20
2022-11-07T15:04:02.519Z,14.20
2022-11-07T15:06:37.971Z,14.20
2022-11-07T15:09:11.108Z,14.20
2022-11-07T15:11:44.028Z,14.20
2022-11-07T15:14:35.763Z,14.20
2022-11-07T15:17:07.285Z,14.30
2022-11-07T15:19:38.980Z,14.30
2022-11-07T15:22:09.640Z,14.30
2022-11-07T15:24:43.261Z,14.30
2022-11-07T15:27:39.239Z,14.30
2022-11-07T15:30:27.691Z,14.30
2022-11-07T15:32:58.241Z,14.20
2022-11-07T15:35:45.203Z,14.20
2022-11-07T15:38:34.403Z,14.10
2022-11-07T15:41:05.790Z,14.10
2022-11-07T15:43:37.354Z,14.10
2022-11-07T15:46:28.099Z,14.10
2022-11-07T15:48:59.380Z,14.00
2022-11-07T15:51:31.756Z,14.00
2022-11-07T15:54:03.369Z,14.00
2022-11-07T15:56:34.100Z,13.90
2022-11-07T15:59:06.041Z,13.80
2022-11-07T16:01:36.976Z,13.80
2022-11-07T16:04:08.806Z,13.70
2022-11-07T16:06:45.694Z,13.70
2022-11-07T16:09:24.057Z,13.70
2022-11-07T16:11:54.760Z,13.60
2022-11-07T16:17:21.076Z,13.50
2022-11-07T16:19:51.754Z,13.40
2022-11-07T16:22:22.717Z,13.40
2022-11-07T16:24:53.389Z,13.40
2022-11-07T16:27:24.401Z,13.30
2022-11-07T16:29:55.075Z,13.30
2022-11-07T16:32:25.349Z,13.30
2022-11-07T16:34:55.974Z,13.30
2022-11-07T16:37:26.182Z,13.20
2022-11-07T16:39:57.695Z,13.20
2022-11-07T16:42:28.995Z,13.10
2022-11-07T16:45:01.342Z,13.00
2022-11-07T16:47:34.559Z,13.00
2022-11-07T16:50:05.241Z,13.00
2022-11-07T16:52:35.525Z,12.90
2022-11-07T16:55:05.942Z,12.90
2022-11-07T16:57:39.481Z,12.90
2022-11-07T17:00:18.654Z,12.80
2022-11-07T17:02:49.996Z,12.80
2022-11-07T17:05:20.967Z,12.80
2022-11-07T17:07:53.231Z,12.80
2022-11-07T17:10:24.207Z,12.70
2022-11-07T17:12:54.815Z,12.70
2022-11-07T17:15:26.024Z,12.70
2022-11-07T17:17:59.879Z,12.70
2022-11-07T17:20:50.399Z,12.60
2022-11-07T17:23:29.846Z,12.60
2022-11-07T17:26:05.355Z,12.50
2022-11-07T17:28:36.124Z,12.50
2022-11-07T17:31:08.529Z,12.50
2022-11-07T17:33:39.203Z,12.40
2022-11-07T17:36:21.530Z,12.40
2022-11-07T17:38:53.423Z,12.40
2022-11-07T17:41:25.799Z,12.40
2022-11-07T17:43:57.140Z,12.40
2022-11-07T17:46:33.123Z,12.40
2022-11-07T17:49:06.483Z,12.40
2022-11-07T17:51:42.338Z,12.40
2022-11-07T17:54:17.649Z,12.40
2022-11-07T17:56:50.420Z,12.30
2022-11-07T17:59:22.757Z,12.20
2022-11-07T18:01:53.733Z,12.20
2022-11-07T18:04:26.001Z,12.20
2022-11-07T18:06:56.377Z,12.10
2022-11-07T18:09:27.880Z,12.10
2022-11-07T18:11:58.602Z,12.10
2022-11-07T18:14:29.277Z,12.00
2022-11-07T18:17:00.340Z,12.00
2022-11-07T18:19:31.355Z,12.00
2022-11-07T18:22:02.218Z,12.00
2022-11-07T18:24:32.852Z,11.90
2022-11-07T18:27:06.621Z,11.90
2022-11-07T18:29:41.598Z,12.00
2022-11-07T18:32:12.067Z,11.90
2022-11-07T18:34:43.108Z,11.90
2022-11-07T18:37:14.751Z,11.90
2022-11-07T18:39:45.367Z,11.80
2022-11-07T18:42:16.385Z,11.80
2022-11-07T18:44:47.020Z,11.80
2022-11-07T18:47:18.051Z,11.80
2022-11-07T18:49:51.587Z,11.80
2022-11-07T18:52:26.726Z,11.70
2022-11-07T18:54:57.388Z,11.70
2022-11-07T18:57:28.448Z,11.70
2022-11-07T18:59:59.099Z,11.70
2022-11-07T19:02:31.412Z,11.70
2022-11-07T19:05:02.142Z,11.60
2022-11-07T19:07:32.848Z,11.60
2022-11-07T19:10:03.973Z,11.60
2022-11-07T19:12:34.697Z,11.60
2022-11-07T19:15:07.846Z,11.60
2022-11-07T19:17:39.572Z,11.60
2022-11-07T19:20:10.292Z,11.60
2022-11-07T19:22:41.641Z,11.60
2022-11-07T19:25:12.186Z,11.60
2022-11-07T19:27:43.002Z,11.60
2022-11-07T19:30:14.072Z,11.60
2022-11-07T19:32:44.833Z,11.60
2022-11-07T19:35:15.071Z,11.60
2022-11-07T19:37:45.566Z,11.60
2022-11-07T19:40:16.336Z,11.60
2022-11-07T19:42:47.013Z,11.60
2022-11-07T19:45:17.764Z,11.60
2022-11-07T19:47:49.674Z,11.70
2022-11-07T19:50:20.549Z,11.70
2022-11-07T19:52:51.876Z,11.70
2022-11-07T19:55:22.195Z,11.80
2022-11-07T19:57:53.668Z,11.90
2022-11-07T20:00:27.885Z,12.00
2022-11-07T20:02:58.795Z,12.00
2022-11-07T20:05:32.892Z,12.10
2022-11-07T20:08:05.389Z,12.10
2022-11-07T20:10:36.098Z,12.10
2022-11-07T20:13:06.868Z,12.20
2022-11-07T20:15:37.679Z,12.20
2022-11-07T20:18:08.703Z,12.30
2022-11-07T20:20:40.615Z,12.30
2022-11-07T20:23:12.273Z,12.40
2022-11-07T20:25:46.578Z,12.40
2022-11-07T20:28:17.844Z,12.50
2022-11-07T20:30:48.761Z,12.50
2022-11-07T20:33:19.373Z,12.60
2022-11-07T20:36:01.150Z,12.70
2022-11-07T20:38:35.814Z,12.70
2022-11-07T20:41:08.400Z,12.80
2022-11-07T20:43:39.368Z,12.90
2022-11-07T20:46:16.980Z,13.00
2022-11-07T20:48:48.535Z,13.20
2022-11-07T20:51:22.115Z,13.30
2022-11-07T20:53:53.127Z,13.30
2022-11-07T20:56:25.662Z,13.40
2022-11-07T20:58:57.354Z,13.40
2022-11-07T21:01:37.828Z,13.50
2022-11-07T21:04:10.836Z,13.60
2022-11-07T21:06:41.632Z,13.70
2022-11-07T21:09:13.353Z,13.80
2022-11-07T21:11:47.014Z,14.00
2022-11-07T21:14:17.849Z,14.10
2022-11-07T21:16:49.552Z,14.30
2022-11-07T21:19:21.498Z,14.60
2022-11-07T21:21:52.453Z,14.90
2022-11-07T21:24:23.228Z,15.20
2022-11-07T21:26:53.897Z,15.50
2022-11-07T21:29:29.221Z,15.80
2022-11-07T21:32:01.183Z,16.00
2022-11-07T21:34:36.222Z,16.30
2022-11-07T21:37:09.230Z,16.60
2022-11-07T21:39:41.206Z,17.00
2022-11-07T21:42:12.083Z,17.20
2022-11-07T21:44:43.715Z,17.50
2022-11-07T21:47:14.345Z,17.80
2022-11-07T21:49:45.356Z,18.20
2022-11-07T21:52:16.005Z,18.60
2022-11-07T21:54:47.618Z,18.90
2022-11-07T21:57:18.385Z,19.20
2022-11-07T21:59:49.464Z,19.50
2022-11-07T22:02:23.283Z,19.60
2022-11-07T22:04:54.436Z,19.80
2022-11-07T22:07:25.432Z,20.10
2022-11-07T22:09:58.092Z,20.30
2022-11-07T22:12:28.765Z,20.50
2022-11-07T22:14:59.714Z,20.60
2022-11-07T22:17:30.459Z,20.60
2022-11-07T22:20:02.071Z,20.50
2022-11-07T22:22:32.863Z,20.50
2022-11-07T22:25:04.243Z,20.60
2022-11-07T22:27:34.940Z,20.70
2022-11-07T22:30:06.346Z,20.40
2022-11-07T22:32:37.032Z,20.50
2022-11-07T22:35:09.372Z,20.50
2022-11-07T22:37:40.236Z,20.60
2022-11-07T22:40:14.297Z,20.50
2022-11-07T22:42:46.554Z,20.40
2022-11-07T22:45:17.306Z,20.30
2022-11-07T22:47:48.274Z,20.30
2022-11-07T22:50:19.328Z,20.30
2022-11-07T22:52:51.666Z,20.40
2022-11-07T22:55:22.684Z,20.50
2022-11-07T22:57:55.275Z,20.60
2022-11-07T23:00:26.798Z,20.50
2022-11-07T23:02:57.612Z,20.30
2022-11-07T23:05:29.201Z,20.10
2022-11-07T23:08:00.059Z,19.90
2022-11-07T23:10:31.743Z,20.00
2022-11-07T23:13:04.254Z,20.20
2022-11-07T23:15:35.501Z,20.40
2022-11-07T23:18:06.204Z,20.60
2022-11-07T23:20:55.779Z,20.80
2022-11-07T23:23:28.940Z,20.90
2022-11-07T23:26:04.478Z,21.00
2022-11-07T23:28:38.185Z,21.10
2022-11-07T23:31:09.462Z,21.10
2022-11-07T23:33:43.544Z,21.10
2022-11-07T23:36:21.128Z,21.20
2022-11-07T23:38:52.564Z,21.30
2022-11-07T23:41:23.322Z,21.40
2022-11-07T23:43:53.881Z,21.40
2022-11-07T23:46:44.383Z,21.50
2022-11-07T23:49:33.711Z,21.60
2022-11-07T23:52:06.676Z,21.60
2022-11-07T23:54:55.160Z,21.80
2022-11-07T23:57:27.223Z,21.90
